createdAt,value
2024-04-04T00:00:57.001Z,49.49
2024-04-04T00:01:57.431Z,48.06
2024-04-04T00:02:56.538Z,47.96
2024-04-04T00:03:56.732Z,47.86
2024-04-04T00:04:56.723Z,47.04
2024-04-04T00:05:56.695Z,48.36
2024-04-04T00:06:57.365Z,45.51
2024-04-04T00:07:57.870Z,44.79
2024-04-04T00:08:56.657Z,44.79
2024-04-04T00:09:56.659Z,43.47
2024-04-04T00:10:56.628Z,41.73
2024-04-04T00:11:56.664Z,39.30
2024-04-04T00:12:57.258Z,37.46
2024-04-04T00:13:57.297Z,35.83
2024-04-04T00:14:56.624Z,37.77
2024-04-04T00:15:56.555Z,38.28
2024-04-04T00:16:56.532Z,37.98
2024-04-04T00:17:56.542Z,39.51
2024-04-04T00:18:56.543Z,40.63
2024-04-04T00:19:55.901Z,39.00
2024-04-04T00:20:57.700Z,38.89
2024-04-04T00:21:56.507Z,38.48
2024-04-04T00:22:56.567Z,38.48
2024-04-04T00:23:56.474Z,40.63
2024-04-04T00:24:56.469Z,40.53
2024-04-04T00:25:56.398Z,40.01
2024-04-04T00:27:05.410Z,39.10
2024-04-04T00:27:57.399Z,40.12
2024-04-04T00:28:57.034Z,39.71
2024-04-04T00:29:56.443Z,39.61
2024-04-04T00:30:57.002Z,40.01
2024-04-04T00:31:56.338Z,41.94
2024-04-04T00:32:56.318Z,40.30
2024-04-04T00:33:56.988Z,41.24
2024-04-04T00:34:56.935Z,39.81
2024-04-04T00:35:56.266Z,38.69
2024-04-04T00:36:56.392Z,39.00
2024-04-04T00:37:56.246Z,38.48
2024-04-04T00:38:56.275Z,39.81
2024-04-04T00:39:56.204Z,39.30
2024-04-04T00:40:56.879Z,40.22
2024-04-04T00:41:56.196Z,39.00
2024-04-04T00:42:56.021Z,39.20
2024-04-04T00:43:56.173Z,39.71
2024-04-04T00:44:56.127Z,40.63
2024-04-04T00:45:56.140Z,41.44
2024-04-04T00:46:55.978Z,41.44
2024-04-04T00:47:56.122Z,40.63
2024-04-04T00:48:56.122Z,41.02
2024-04-04T00:49:56.066Z,41.14
2024-04-04T00:50:55.923Z,40.53
2024-04-04T00:51:55.915Z,39.81
2024-04-04T00:52:56.051Z,39.18
2024-04-04T00:53:56.012Z,38.69
2024-04-04T00:54:55.953Z,39.30
2024-04-04T00:55:56.043Z,39.10
2024-04-04T00:56:56.002Z,40.32
2024-04-04T00:57:56.028Z,40.71
2024-04-04T00:58:55.978Z,40.92
2024-04-04T00:59:55.263Z,39.71
2024-04-04T01:00:56.009Z,39.28
2024-04-04T01:01:55.927Z,41.14
2024-04-04T01:02:55.916Z,37.05
2024-04-04T01:03:55.912Z,36.85
2024-04-04T01:04:55.894Z,36.85
2024-04-04T01:05:55.859Z,36.34
2024-04-04T01:06:56.534Z,35.22
2024-04-04T01:07:55.501Z,36.43
2024-04-04T01:08:55.802Z,37.36
2024-04-04T01:09:55.878Z,37.14
2024-04-04T01:10:55.855Z,37.67
2024-04-04T01:11:55.826Z,37.85
2024-04-04T01:12:55.794Z,36.22
2024-04-04T01:13:55.750Z,36.53
2024-04-04T01:14:55.757Z,35.93
2024-04-04T01:15:55.838Z,36.02
2024-04-04T01:16:56.410Z,36.94
2024-04-04T01:17:55.666Z,35.93
2024-04-04T01:18:55.685Z,34.50
2024-04-04T01:19:55.671Z,34.20
2024-04-04T01:20:55.658Z,34.39
2024-04-04T01:21:55.639Z,34.40
2024-04-04T01:22:55.642Z,35.32
2024-04-04T01:23:55.620Z,33.18
2024-04-04T01:24:55.644Z,33.07
2024-04-04T01:25:56.232Z,33.18
2024-04-04T01:26:56.270Z,33.38
2024-04-04T01:27:55.630Z,32.36
2024-04-04T01:28:55.595Z,34.40
2024-04-04T01:29:56.193Z,34.59
2024-04-04T01:30:56.207Z,35.92
2024-04-04T01:31:55.478Z,35.92
2024-04-04T01:32:55.528Z,37.55
2024-04-04T01:33:55.591Z,36.75
2024-04-04T01:34:55.459Z,37.85
2024-04-04T01:35:56.122Z,39.18
2024-04-04T01:36:55.483Z,37.75
2024-04-04T01:37:55.432Z,40.10
2024-04-04T01:38:55.509Z,40.71
2024-04-04T01:39:55.416Z,40.20
2024-04-04T01:40:55.394Z,40.71
2024-04-04T01:41:55.352Z,40.92
2024-04-04T01:42:56.056Z,40.10
2024-04-04T01:43:55.345Z,39.90
2024-04-04T01:44:55.327Z,38.78
2024-04-04T01:45:55.348Z,38.26
2024-04-04T01:46:55.291Z,39.18
2024-04-04T01:47:56.497Z,41.22
2024-04-04T01:48:55.304Z,39.90
2024-04-04T01:49:55.902Z,42.02
2024-04-04T01:50:55.209Z,42.22
2024-04-04T01:51:55.279Z,43.04
2024-04-04T01:52:55.212Z,40.90
2024-04-04T01:53:55.210Z,40.28
2024-04-04T01:54:55.917Z,40.90
2024-04-04T01:55:54.708Z,42.33
2024-04-04T01:56:55.153Z,41.92
2024-04-04T01:57:55.814Z,41.00
2024-04-04T01:58:55.141Z,39.78
2024-04-04T01:59:55.123Z,40.39
2024-04-04T02:00:55.876Z,42.33
2024-04-04T02:01:55.091Z,43.96
2024-04-04T02:02:55.725Z,45.89
2024-04-04T02:03:55.088Z,46.71
2024-04-04T02:04:55.023Z,46.38
2024-04-04T02:05:55.705Z,47.61
2024-04-04T02:06:55.027Z,48.11
2024-04-04T02:07:55.656Z,47.20
2024-04-04T02:08:55.002Z,45.57
2024-04-04T02:09:54.998Z,46.08
2024-04-04T02:10:54.962Z,45.67
2024-04-04T02:11:54.810Z,45.87
2024-04-04T02:12:55.606Z,44.34
2024-04-04T02:13:54.812Z,44.85
2024-04-04T02:14:54.894Z,44.14
2024-04-04T02:15:54.970Z,46.28
2024-04-04T02:16:54.874Z,45.87
2024-04-04T02:17:55.509Z,44.14
2024-04-04T02:18:56.108Z,45.26
2024-04-04T02:19:55.493Z,45.16
2024-04-04T02:20:54.821Z,44.85
2024-04-04T02:21:54.901Z,45.16
2024-04-04T02:22:55.449Z,45.16
2024-04-04T02:23:54.798Z,45.87
2024-04-04T02:24:54.805Z,47.50
2024-04-04T02:25:55.393Z,48.63
2024-04-04T02:26:54.774Z,48.73
2024-04-04T02:27:55.405Z,48.42
2024-04-04T02:28:54.684Z,49.65
2024-04-04T02:29:54.695Z,51.07
2024-04-04T02:30:54.711Z,52.29
2024-04-04T02:31:55.863Z,50.26
2024-04-04T02:32:55.304Z,51.99
2024-04-04T02:33:54.653Z,54.64
2024-04-04T02:34:54.628Z,54.82
2024-04-04T02:35:54.622Z,57.19
2024-04-04T02:36:54.625Z,56.07
2024-04-04T02:37:54.666Z,57.90
2024-04-04T02:38:55.241Z,60.76
2024-04-04T02:39:55.239Z,61.65
2024-04-04T02:40:54.536Z,60.53
2024-04-04T02:41:54.579Z,64.20
2024-04-04T02:42:53.876Z,62.05
2024-04-04T02:43:53.763Z,63.07
2024-04-04T02:44:54.481Z,64.40
2024-04-04T02:45:54.537Z,64.50
2024-04-04T02:46:54.449Z,62.97
2024-04-04T02:47:54.464Z,62.16
2024-04-04T02:48:54.506Z,61.75
2024-04-04T02:49:54.471Z,61.34
2024-04-04T02:50:53.740Z,60.93
2024-04-04T02:51:53.663Z,62.66
2024-04-04T02:52:54.365Z,65.62
2024-04-04T02:53:54.368Z,67.55
2024-04-04T02:54:55.026Z,67.66
2024-04-04T02:55:54.343Z,68.68
2024-04-04T02:56:55.048Z,67.66
2024-04-04T02:57:54.300Z,71.12
2024-04-04T02:58:54.293Z,69.59
2024-04-04T02:59:54.170Z,72.75
2024-04-04T03:00:54.980Z,72.34
2024-04-04T03:01:54.900Z,71.63
2024-04-04T03:02:54.211Z,70.31
2024-04-04T03:03:54.897Z,69.80
2024-04-04T03:04:54.858Z,68.68
2024-04-04T03:05:54.841Z,69.80
2024-04-04T03:06:54.881Z,72.04
2024-04-04T03:07:54.141Z,73.97
2024-04-04T03:08:54.160Z,73.97
2024-04-04T03:09:54.164Z,74.18
2024-04-04T03:10:54.768Z,75.92
2024-04-04T03:11:54.089Z,75.60
2024-04-04T03:12:54.080Z,76.32
2024-04-04T03:13:54.082Z,77.03
2024-04-04T03:14:54.707Z,76.93
2024-04-04T03:15:53.699Z,76.93
2024-04-04T03:16:54.018Z,73.77
2024-04-04T03:17:54.040Z,74.79
2024-04-04T03:18:54.028Z,74.18
2024-04-04T03:19:54.000Z,75.30
2024-04-04T03:20:54.650Z,74.18
2024-04-04T03:21:54.009Z,72.34
2024-04-04T03:22:55.510Z,72.04
2024-04-04T03:23:54.588Z,72.86
2024-04-04T03:24:53.936Z,73.47
2024-04-04T03:25:53.913Z,73.16
2024-04-04T03:26:53.878Z,72.34
2024-04-04T03:27:53.896Z,73.06
2024-04-04T03:28:54.536Z,73.97
2024-04-04T03:29:54.510Z,73.77
2024-04-04T03:30:54.509Z,73.57
2024-04-04T03:31:53.349Z,74.38
2024-04-04T03:32:53.817Z,75.71
2024-04-04T03:33:54.456Z,75.92
2024-04-04T03:34:55.005Z,76.62
2024-04-04T03:35:53.752Z,76.73
2024-04-04T03:36:54.461Z,76.12
2024-04-04T03:37:54.430Z,76.90
2024-04-04T03:38:54.384Z,76.73
2024-04-04T03:39:53.738Z,75.40
2024-04-04T03:40:53.734Z,74.99
2024-04-04T03:41:54.355Z,75.57
2024-04-04T03:42:53.738Z,75.67
2024-04-04T03:43:54.317Z,76.28
2024-04-04T03:44:54.295Z,79.07
2024-04-04T03:45:53.637Z,75.67
2024-04-04T03:46:53.619Z,78.87
2024-04-04T03:47:53.610Z,79.03
2024-04-04T03:48:54.245Z,79.34
2024-04-04T03:49:53.605Z,80.36
2024-04-04T03:50:53.547Z,80.77
2024-04-04T03:51:53.564Z,80.97
2024-04-04T03:52:53.543Z,81.88
2024-04-04T03:53:54.727Z,80.16
2024-04-04T03:54:53.552Z,79.95
2024-04-04T03:55:53.512Z,79.95
2024-04-04T03:57:00.492Z,79.34
2024-04-04T03:57:54.474Z,78.42
2024-04-04T03:58:53.471Z,80.36
2024-04-04T03:59:54.094Z,77.95
2024-04-04T04:00:54.103Z,79.07
2024-04-04T04:01:53.425Z,79.48
2024-04-04T04:02:53.451Z,79.85
2024-04-04T04:03:53.416Z,80.46
2024-04-04T04:04:53.372Z,78.32
2024-04-04T04:05:54.083Z,79.34
2024-04-04T04:06:54.028Z,80.66
2024-04-04T04:07:53.357Z,78.93
2024-04-04T04:08:53.325Z,79.34
2024-04-04T04:09:52.846Z,79.24
2024-04-04T04:10:53.954Z,77.81
2024-04-04T04:11:53.343Z,78.36
2024-04-04T04:12:53.503Z,79.85
2024-04-04T04:13:53.266Z,82.09
2024-04-04T04:14:53.270Z,81.07
2024-04-04T04:15:53.312Z,79.85
2024-04-04T04:16:53.241Z,78.83
2024-04-04T04:17:53.262Z,79.75
2024-04-04T04:18:53.196Z,79.85
2024-04-04T04:19:53.171Z,80.50
2024-04-04T04:20:53.258Z,81.07
2024-04-04T04:21:53.793Z,81.48
2024-04-04T04:22:53.133Z,81.07
2024-04-04T04:23:53.101Z,82.90
2024-04-04T04:24:53.148Z,82.80
2024-04-04T04:25:52.348Z,83.21
2024-04-04T04:26:52.832Z,82.40
2024-04-04T04:27:53.962Z,83.01
2024-04-04T04:28:53.765Z,83.01
2024-04-04T04:29:53.042Z,84.12
2024-04-04T04:30:53.097Z,82.40
2024-04-04T04:31:54.934Z,83.21
2024-04-04T04:32:52.987Z,85.75
2024-04-04T04:33:52.487Z,85.05
2024-04-04T04:34:53.002Z,82.29
2024-04-04T04:35:52.949Z,84.64
2024-04-04T04:36:52.944Z,84.74
2024-04-04T04:37:52.899Z,83.82
2024-04-04T04:38:53.570Z,85.45
2024-04-04T04:39:52.891Z,85.25
2024-04-04T04:40:52.877Z,85.35
2024-04-04T04:41:52.835Z,85.55
2024-04-04T04:42:52.887Z,84.43
2024-04-04T04:43:52.906Z,84.23
2024-04-04T04:44:56.338Z,84.94
2024-04-04T04:45:52.810Z,82.50
2024-04-04T04:46:52.771Z,83.51
2024-04-04T04:47:53.427Z,83.21
2024-04-04T04:48:52.793Z,84.74
2024-04-04T04:49:52.784Z,85.55
2024-04-04T04:50:53.941Z,84.33
2024-04-04T04:51:52.744Z,83.72
2024-04-04T04:52:53.388Z,82.70
2024-04-04T04:53:52.702Z,84.03
2024-04-04T04:54:52.691Z,84.43
2024-04-04T04:55:53.322Z,83.62
2024-04-04T04:56:53.323Z,83.11
2024-04-04T04:57:52.651Z,84.53
2024-04-04T04:58:52.641Z,84.03
2024-04-04T04:59:52.618Z,83.42
2024-04-04T05:00:53.304Z,84.74
2024-04-04T05:01:53.271Z,85.35
2024-04-04T05:02:53.275Z,85.05
2024-04-04T05:03:52.161Z,83.72
2024-04-04T05:04:52.549Z,83.92
2024-04-04T05:05:53.189Z,84.33
2024-04-04T05:06:53.177Z,83.82
2024-04-04T05:07:52.511Z,82.19
2024-04-04T05:08:52.523Z,82.90
2024-04-04T05:09:52.210Z,82.40
2024-04-04T05:10:52.448Z,80.46
2024-04-04T05:11:51.718Z,80.77
2024-04-04T05:12:52.447Z,80.66
2024-04-04T05:13:53.663Z,77.91
2024-04-04T05:14:51.736Z,79.58
2024-04-04T05:15:52.383Z,78.16
2024-04-04T05:16:52.397Z,77.55
2024-04-04T05:17:51.848Z,77.95
2024-04-04T05:18:52.405Z,77.61
2024-04-04T05:19:51.866Z,78.66
2024-04-04T05:20:52.318Z,78.66
2024-04-04T05:21:51.883Z,77.95
2024-04-04T05:22:51.982Z,77.85
2024-04-04T05:23:52.295Z,76.42
2024-04-04T05:24:52.285Z,76.83
2024-04-04T05:25:52.250Z,77.85
2024-04-04T05:26:52.254Z,80.40
2024-04-04T05:27:52.125Z,83.35
2024-04-04T05:28:52.237Z,81.58
2024-04-04T05:29:52.870Z,81.88
2024-04-04T05:30:52.177Z,81.38
2024-04-04T05:31:53.413Z,82.33
2024-04-04T05:32:53.380Z,82.90
2024-04-04T05:33:53.362Z,82.60
2024-04-04T05:34:53.378Z,85.96
2024-04-04T05:35:53.354Z,86.47
2024-04-04T05:36:53.322Z,86.06
2024-04-04T05:37:53.313Z,87.59
2024-04-04T05:38:52.087Z,87.38
2024-04-04T05:39:53.651Z,84.03
2024-04-04T05:40:53.268Z,85.25
2024-04-04T05:41:53.300Z,86.47
2024-04-04T05:42:53.252Z,85.55
2024-04-04T05:43:53.209Z,87.79
2024-04-04T05:44:53.311Z,87.59
2024-04-04T05:45:51.988Z,88.51
2024-04-04T05:46:51.981Z,87.08
2024-04-04T05:47:52.618Z,88.61
2024-04-04T05:48:52.598Z,89.32
2024-04-04T05:49:52.273Z,87.69
2024-04-04T05:50:51.926Z,87.49
2024-04-04T05:51:51.263Z,86.77
2024-04-04T05:52:52.543Z,86.47
2024-04-04T05:53:52.528Z,90.95
2024-04-04T05:54:53.071Z,90.03
2024-04-04T05:55:51.856Z,91.62
2024-04-04T05:56:52.491Z,91.52
2024-04-04T05:57:51.839Z,89.63
2024-04-04T05:58:51.811Z,90.60
2024-04-04T05:59:51.775Z,89.94
2024-04-04T06:00:51.832Z,86.94
2024-04-04T06:01:52.437Z,88.57
2024-04-04T06:02:51.752Z,87.08
2024-04-04T06:03:52.402Z,89.18
2024-04-04T06:04:51.745Z,90.03
2024-04-04T06:05:52.358Z,88.67
2024-04-04T06:06:51.699Z,88.61
2024-04-04T06:07:51.687Z,89.89
2024-04-04T06:08:51.688Z,90.70
2024-04-04T06:09:51.674Z,87.45
2024-04-04T06:10:51.642Z,87.24
2024-04-04T06:11:52.327Z,88.16
2024-04-04T06:12:51.619Z,85.82
2024-04-04T06:13:52.260Z,89.32
2024-04-04T06:14:51.563Z,87.45
2024-04-04T06:15:51.569Z,87.75
2024-04-04T06:16:51.555Z,88.67
2024-04-04T06:17:52.194Z,88.16
2024-04-04T06:18:50.915Z,89.18
2024-04-04T06:19:51.566Z,90.60
2024-04-04T06:20:51.522Z,89.54
2024-04-04T06:21:51.492Z,89.44
2024-04-04T06:22:51.482Z,91.99
2024-04-04T06:23:51.440Z,92.80
2024-04-04T06:24:52.236Z,92.09
2024-04-04T06:25:51.441Z,92.80
2024-04-04T06:26:50.984Z,94.23
2024-04-04T06:27:51.424Z,91.78
2024-04-04T06:28:51.416Z,90.97
2024-04-04T06:29:51.387Z,87.61
2024-04-04T06:30:51.372Z,87.65
2024-04-04T06:31:51.985Z,89.69
2024-04-04T06:32:51.340Z,88.42
2024-04-04T06:33:51.354Z,89.79
2024-04-04T06:34:51.035Z,89.38
2024-04-04T06:35:51.302Z,86.74
2024-04-04T06:36:51.927Z,88.57
2024-04-04T06:37:50.935Z,85.92
2024-04-04T06:38:51.230Z,86.08
2024-04-04T06:39:50.958Z,87.14
2024-04-04T06:40:51.259Z,84.09
2024-04-04T06:41:51.858Z,80.83
2024-04-04T06:42:51.858Z,83.31
2024-04-04T06:43:51.166Z,85.45
2024-04-04T06:44:51.170Z,82.50
2024-04-04T06:45:51.161Z,81.07
2024-04-04T06:46:52.359Z,78.39
2024-04-04T06:47:51.788Z,81.48
2024-04-04T06:48:51.099Z,79.50
2024-04-04T06:49:51.277Z,83.58
2024-04-04T06:50:51.088Z,80.02
2024-04-04T06:51:51.741Z,79.20
2024-04-04T06:52:51.040Z,76.96
2024-04-04T06:53:51.033Z,79.03
2024-04-04T06:54:51.678Z,79.03
2024-04-04T06:55:51.020Z,73.74
2024-04-04T06:56:51.016Z,74.76
2024-04-04T06:57:51.023Z,72.82
2024-04-04T06:58:51.629Z,69.97
2024-04-04T06:59:51.027Z,71.50
2024-04-04T07:00:50.980Z,70.48
2024-04-04T07:01:50.960Z,70.89
2024-04-04T07:02:50.901Z,67.02
2024-04-04T07:03:51.551Z,66.61
2024-04-04T07:04:50.950Z,68.04
2024-04-04T07:05:51.548Z,64.37
2024-04-04T07:06:50.882Z,65.49
2024-04-04T07:07:51.533Z,63.79
2024-04-04T07:08:50.846Z,61.54
2024-04-04T07:09:51.505Z,62.26
2024-04-04T07:10:50.871Z,64.90
2024-04-04T07:11:51.472Z,63.38
2024-04-04T07:12:51.442Z,59.00
2024-04-04T07:13:51.426Z,64.09
2024-04-04T07:14:51.397Z,61.75
2024-04-04T07:15:51.409Z,61.34
2024-04-04T07:16:50.714Z,61.44
2024-04-04T07:17:50.698Z,57.37
2024-04-04T07:18:51.358Z,54.51
2024-04-04T07:19:50.303Z,56.65
2024-04-04T07:20:50.723Z,61.04
2024-04-04T07:21:51.539Z,62.05
2024-04-04T07:22:50.652Z,59.41
2024-04-04T07:23:51.286Z,60.12
2024-04-04T07:24:51.265Z,56.65
2024-04-04T07:25:50.611Z,56.04
2024-04-04T07:26:51.254Z,55.13
2024-04-04T07:27:50.359Z,58.69
2024-04-04T07:28:50.535Z,54.92
2024-04-04T07:29:51.210Z,54.94
2024-04-04T07:30:50.532Z,52.29
2024-04-04T07:31:50.553Z,50.23
2024-04-04T07:32:51.706Z,50.54
2024-04-04T07:33:51.155Z,51.56
2024-04-04T07:34:49.901Z,52.60
2024-04-04T07:35:49.902Z,56.88
2024-04-04T07:36:51.109Z,54.31
2024-04-04T07:37:50.436Z,55.13
2024-04-04T07:38:50.445Z,56.68
2024-04-04T07:39:51.070Z,54.31
2024-04-04T07:40:50.383Z,56.35
2024-04-04T07:41:51.067Z,56.78
2024-04-04T07:42:50.152Z,44.55
2024-04-04T07:43:50.053Z,42.41
2024-04-04T07:44:50.997Z,41.28
2024-04-04T07:45:50.323Z,43.23
2024-04-04T07:46:50.957Z,42.00
2024-04-04T07:47:51.511Z,45.67
2024-04-04T07:48:51.485Z,38.43
2024-04-04T07:49:51.194Z,38.82
2024-04-04T07:50:50.296Z,40.35
2024-04-04T07:51:51.433Z,38.84
2024-04-04T07:52:51.436Z,40.47
2024-04-04T07:53:51.418Z,41.28
2024-04-04T07:54:50.869Z,42.71
2024-04-04T07:55:50.849Z,47.40
2024-04-04T07:56:50.187Z,42.10
2024-04-04T07:57:51.385Z,42.71
2024-04-04T07:58:50.188Z,42.82
2024-04-04T07:59:51.341Z,44.55
2024-04-04T08:00:50.134Z,42.92
2024-04-04T08:01:50.114Z,42.41
2024-04-04T08:02:50.751Z,41.08
2024-04-04T08:03:50.770Z,41.59
2024-04-04T08:04:50.735Z,49.44
2024-04-04T08:05:50.708Z,45.87
2024-04-04T08:06:49.384Z,44.96
2024-04-04T08:07:50.040Z,42.61
2024-04-04T08:08:49.396Z,42.30
2024-04-04T08:09:50.666Z,42.71
2024-04-04T08:10:50.010Z,47.71
2024-04-04T08:11:50.722Z,48.02
2024-04-04T08:12:50.611Z,45.26
2024-04-04T08:13:49.923Z,48.73
2024-04-04T08:14:49.335Z,49.04
2024-04-04T08:15:49.919Z,48.73
2024-04-04T08:16:49.961Z,46.18
2024-04-04T08:17:50.548Z,44.75
2024-04-04T08:18:51.098Z,46.48
2024-04-04T08:19:50.554Z,44.75
2024-04-04T08:20:49.852Z,42.49
2024-04-04T08:21:49.837Z,43.12
2024-04-04T08:22:49.827Z,43.02
2024-04-04T08:23:49.796Z,45.36
2024-04-04T08:24:50.443Z,45.67
2024-04-04T08:25:50.430Z,47.61
2024-04-04T08:26:49.772Z,43.53
2024-04-04T08:27:50.403Z,45.34
2024-04-04T08:28:49.724Z,54.24
2024-04-04T08:29:50.389Z,52.27
2024-04-04T08:30:48.978Z,49.83
2024-04-04T08:31:49.045Z,49.65
2024-04-04T08:32:49.122Z,51.38
2024-04-04T08:33:49.657Z,49.04
2024-04-04T08:34:50.351Z,48.73
2024-04-04T08:35:50.349Z,46.59
2024-04-04T08:36:49.634Z,47.49
2024-04-04T08:37:49.588Z,45.34
2024-04-04T08:38:50.254Z,48.10
2024-04-04T08:39:49.595Z,50.97
2024-04-04T08:40:49.584Z,49.04
2024-04-04T08:41:50.748Z,51.79
2024-04-04T08:42:49.520Z,46.28
2024-04-04T08:43:49.572Z,45.36
2024-04-04T08:44:49.564Z,45.16
2024-04-04T08:45:50.148Z,45.77
2024-04-04T08:46:49.135Z,45.47
2024-04-04T08:47:50.683Z,44.14
2024-04-04T08:48:49.054Z,45.77
2024-04-04T08:49:50.090Z,49.13
2024-04-04T08:50:49.861Z,45.16
2024-04-04T08:51:49.416Z,45.16
2024-04-04T08:52:48.704Z,48.42
2024-04-04T08:53:50.631Z,48.22
2024-04-04T08:54:49.099Z,43.43
2024-04-04T08:55:49.103Z,52.20
2024-04-04T08:56:49.009Z,46.18
2024-04-04T08:57:50.007Z,52.40
2024-04-04T08:58:49.998Z,46.89
2024-04-04T08:59:49.369Z,47.50
2024-04-04T09:00:49.340Z,47.20
2024-04-04T09:01:49.429Z,51.07
2024-04-04T09:02:50.362Z,48.96
2024-04-04T09:03:49.270Z,50.26
2024-04-04T09:04:49.283Z,47.81
2024-04-04T09:05:49.277Z,45.47
2024-04-04T09:06:49.523Z,50.56
2024-04-04T09:07:49.214Z,46.69
2024-04-04T09:08:49.241Z,51.68
2024-04-04T09:09:49.830Z,47.00
2024-04-04T09:10:48.406Z,50.87
2024-04-04T09:11:49.498Z,48.02
2024-04-04T09:12:49.788Z,48.52
2024-04-04T09:13:49.153Z,52.09
2024-04-04T09:14:49.771Z,48.93
2024-04-04T09:15:49.747Z,55.05
2024-04-04T09:16:50.185Z,47.89
2024-04-04T09:17:49.059Z,55.26
2024-04-04T09:18:49.046Z,51.17
2024-04-04T09:19:49.674Z,53.22
2024-04-04T09:20:49.017Z,53.31
2024-04-04T09:21:49.552Z,57.19
2024-04-04T09:22:50.206Z,50.03
2024-04-04T09:23:48.975Z,48.81
2024-04-04T09:24:57.144Z,54.72
2024-04-04T09:25:50.627Z,54.51
2024-04-04T09:26:49.100Z,54.49
2024-04-04T09:27:48.960Z,63.38
2024-04-04T09:28:50.101Z,54.11
2024-04-04T09:29:48.899Z,55.13
2024-04-04T09:30:48.934Z,56.65
2024-04-04T09:31:50.234Z,54.21
2024-04-04T09:32:48.866Z,60.02
2024-04-04T09:33:48.842Z,52.37
2024-04-04T09:34:48.885Z,50.03
2024-04-04T09:35:48.822Z,54.61
2024-04-04T09:36:48.460Z,50.82
2024-04-04T09:37:48.794Z,49.40
2024-04-04T09:38:48.786Z,49.90
2024-04-04T09:39:49.467Z,59.48
2024-04-04T09:40:48.769Z,56.45
2024-04-04T09:41:49.612Z,58.80
2024-04-04T09:42:48.508Z,57.17
2024-04-04T09:43:48.723Z,51.74
2024-04-04T09:44:48.689Z,64.29
2024-04-04T09:45:49.893Z,61.34
2024-04-04T09:46:48.739Z,58.08
2024-04-04T09:47:48.649Z,53.47
2024-04-04T09:48:48.629Z,51.23
2024-04-04T09:49:48.552Z,56.45
2024-04-04T09:50:48.581Z,57.95
2024-04-04T09:51:49.241Z,68.04
2024-04-04T09:52:48.583Z,59.99
2024-04-04T09:53:48.567Z,61.00
2024-04-04T09:54:48.595Z,57.42
2024-04-04T09:55:48.569Z,54.66
2024-04-04T09:56:47.999Z,56.70
2024-04-04T09:57:48.512Z,58.94
2024-04-04T09:58:48.080Z,63.93
2024-04-04T09:59:49.124Z,64.47
2024-04-04T10:00:48.490Z,63.65
2024-04-04T10:01:49.097Z,64.17
2024-04-04T10:02:48.644Z,58.36
2024-04-04T10:03:48.474Z,59.28
2024-04-04T10:04:48.469Z,61.93
2024-04-04T10:05:49.055Z,56.90
2024-04-04T10:06:49.044Z,60.16
2024-04-04T10:07:48.377Z,58.97
2024-04-04T10:08:49.562Z,56.63
2024-04-04T10:09:48.342Z,58.56
2024-04-04T10:10:49.023Z,55.30
2024-04-04T10:11:48.312Z,60.09
2024-04-04T10:12:48.948Z,55.84
2024-04-04T10:13:48.942Z,49.62
2024-04-04T10:14:49.497Z,52.25
2024-04-04T10:15:48.930Z,58.59
2024-04-04T10:16:48.247Z,56.52
2024-04-04T10:17:48.237Z,60.70
2024-04-04T10:18:48.210Z,56.52
2024-04-04T10:19:48.886Z,50.31
2024-04-04T10:20:48.211Z,58.46
2024-04-04T10:21:48.880Z,58.87
2024-04-04T10:22:48.900Z,58.46
2024-04-04T10:23:48.151Z,59.71
2024-04-04T10:24:48.892Z,53.06
2024-04-04T10:25:48.982Z,58.05
2024-04-04T10:26:48.099Z,57.24
2024-04-04T10:27:48.138Z,58.46
2024-04-04T10:28:48.779Z,60.22
2024-04-04T10:29:53.696Z,61.54
2024-04-04T10:30:49.053Z,56.15
2024-04-04T10:31:49.262Z,59.30
2024-04-04T10:32:48.677Z,52.58
2024-04-04T10:33:48.646Z,50.95
2024-04-04T10:34:55.012Z,52.07
2024-04-04T10:35:48.001Z,49.32
2024-04-04T10:36:47.963Z,49.32
2024-04-04T10:37:49.157Z,47.79
2024-04-04T10:38:47.942Z,54.51
2024-04-04T10:39:49.189Z,49.83
2024-04-04T10:40:47.924Z,54.11
2024-04-04T10:41:48.565Z,53.29
2024-04-04T10:42:47.883Z,51.46
2024-04-04T10:43:48.527Z,54.82
2024-04-04T10:44:47.831Z,53.67
2024-04-04T10:45:48.891Z,60.19
2024-04-04T10:46:47.867Z,59.10
2024-04-04T10:47:47.813Z,49.29
2024-04-04T10:48:47.396Z,53.98
2024-04-04T10:49:47.792Z,48.18
2024-04-04T10:50:48.442Z,52.07
2024-04-04T10:51:47.753Z,49.52
2024-04-04T10:52:47.744Z,52.68
2024-04-04T10:53:47.715Z,51.15
2024-04-04T10:54:48.373Z,54.85
2024-04-04T10:55:48.347Z,51.38
2024-04-04T10:56:47.688Z,48.32
2024-04-04T10:57:47.261Z,50.97
2024-04-04T10:58:47.647Z,43.32
2024-04-04T10:59:47.646Z,40.37
2024-04-04T11:00:47.631Z,44.04
2024-04-04T11:01:47.627Z,43.53
2024-04-04T11:02:47.627Z,49.54
2024-04-04T11:03:47.589Z,41.16
2024-04-04T11:04:47.622Z,45.65
2024-04-04T11:05:48.207Z,46.47
2024-04-04T11:06:46.833Z,47.38
2024-04-04T11:07:47.580Z,48.60
2024-04-04T11:08:47.495Z,47.79
2024-04-04T11:09:47.529Z,37.27
2024-04-04T11:10:48.153Z,41.86
2024-04-04T11:11:47.483Z,46.34
2024-04-04T11:12:47.469Z,44.51
2024-04-04T11:13:47.474Z,51.64
2024-04-04T11:14:48.100Z,52.55
2024-04-04T11:15:48.138Z,51.64
2024-04-04T11:16:47.418Z,50.52
2024-04-04T11:17:47.451Z,48.07
2024-04-04T11:18:47.362Z,47.85
2024-04-04T11:19:48.020Z,49.07
2024-04-04T11:20:48.024Z,49.68
2024-04-04T11:21:47.352Z,57.82
2024-04-04T11:22:47.336Z,51.51
2024-04-04T11:23:47.625Z,49.17
2024-04-04T11:24:47.305Z,51.08
2024-04-04T11:25:47.960Z,62.81
2024-04-04T11:26:47.274Z,50.39
2024-04-04T11:27:47.301Z,60.37
2024-04-04T11:28:53.031Z,56.29
2024-04-04T11:29:48.279Z,55.99
2024-04-04T11:30:47.216Z,62.61
2024-04-04T11:31:47.212Z,57.21
2024-04-04T11:32:47.190Z,70.10
2024-04-04T11:33:47.226Z,63.67
2024-04-04T11:34:47.276Z,63.97
2024-04-04T11:35:47.145Z,60.72
2024-04-04T11:36:47.816Z,73.94
2024-04-04T11:37:47.123Z,67.13
2024-04-04T11:38:47.082Z,71.50
2024-04-04T11:39:47.088Z,70.89
2024-04-04T11:40:47.727Z,68.79
2024-04-04T11:41:47.714Z,59.70
2024-04-04T11:42:47.079Z,62.78
2024-04-04T11:43:47.074Z,63.49
2024-04-04T11:44:50.191Z,65.39
2024-04-04T11:45:47.776Z,90.07
2024-04-04T11:46:47.010Z,85.41
2024-04-04T11:47:47.794Z,79.63
2024-04-04T11:48:47.003Z,73.19
2024-04-04T11:49:47.594Z,80.80
2024-04-04T11:50:47.023Z,89.52
2024-04-04T11:51:46.955Z,71.03
2024-04-04T11:52:46.878Z,70.42
2024-04-04T11:53:46.852Z,72.85
2024-04-04T11:54:46.877Z,76.04
2024-04-04T11:55:47.527Z,75.53
2024-04-04T11:56:46.826Z,75.43
2024-04-04T11:57:46.822Z,71.87
2024-04-04T11:58:46.826Z,77.50
2024-04-04T11:59:46.658Z,66.21
2024-04-04T12:00:46.801Z,62.62
2024-04-04T12:01:46.752Z,74.96
2024-04-04T12:02:46.769Z,63.59
2024-04-04T12:03:47.411Z,60.54
2024-04-04T12:04:46.808Z,56.68
2024-04-04T12:05:47.364Z,50.98
2024-04-04T12:06:47.925Z,47.64
2024-04-04T12:07:47.912Z,56.09
2024-04-04T12:08:47.323Z,53.14
2024-04-04T12:09:46.696Z,52.43
2024-04-04T12:10:46.664Z,44.49
2024-04-04T12:11:47.307Z,44.18
2024-04-04T12:12:47.287Z,39.62
2024-04-04T12:13:46.609Z,37.87
2024-04-04T12:14:47.259Z,36.44
2024-04-04T12:15:46.632Z,34.20
2024-04-04T12:16:47.236Z,32.57
2024-04-04T12:17:47.222Z,34.41
2024-04-04T12:18:47.218Z,35.63
2024-04-04T12:19:46.542Z,32.78
2024-04-04T12:20:46.541Z,28.60
2024-04-04T12:21:47.175Z,31.46
2024-04-04T12:22:46.504Z,31.86
2024-04-04T12:23:53.056Z,34.93
2024-04-04T12:24:47.459Z,28.72
2024-04-04T12:25:46.484Z,26.99
2024-04-04T12:26:46.429Z,23.52
2024-04-04T12:27:47.071Z,18.33
2024-04-04T12:28:47.055Z,22.91
2024-04-04T12:29:46.398Z,27.70
2024-04-04T12:30:47.043Z,51.38
2024-04-04T12:31:47.047Z,50.51
2024-04-04T12:32:46.398Z,49.76
2024-04-04T12:33:47.536Z,37.54
2024-04-04T12:34:46.383Z,32.01
2024-04-04T12:35:46.287Z,28.84
2024-04-04T12:36:46.297Z,31.41
2024-04-04T12:37:46.951Z,28.64
2024-04-04T12:38:46.266Z,32.11
2024-04-04T12:39:46.266Z,29.66
2024-04-04T12:40:46.222Z,30.07
2024-04-04T12:41:46.895Z,29.97
2024-04-04T12:42:46.863Z,32.01
2024-04-04T12:43:46.846Z,29.14
2024-04-04T12:44:46.237Z,27.51
2024-04-04T12:45:46.823Z,22.91
2024-04-04T12:46:46.161Z,24.34
2024-04-04T12:47:46.194Z,23.83
2024-04-04T12:48:46.129Z,23.42
2024-04-04T12:49:46.098Z,20.76
2024-04-04T12:50:46.079Z,19.94
2024-04-04T12:51:46.102Z,25.77
2024-04-04T12:52:46.081Z,20.66